createdAt,value
2019-01-26T00:00:30.577Z,6.50
2019-01-26T00:03:00.584Z,6.50
2019-01-26T00:05:30.836Z,6.40
2019-01-26T00:08:01.005Z,6.40
2019-01-26T00:10:31.013Z,6.40
2019-01-26T00:13:00.937Z,6.40
2019-01-26T00:15:31.059Z,6.40
2019-01-26T00:18:00.951Z,6.40
2019-01-26T00:20:31.161Z,6.40
2019-01-26T00:23:01.071Z,6.40
2019-01-26T00:25:31.277Z,6.40
2019-01-26T00:28:01.193Z,6.40
2019-01-26T00:30:31.301Z,6.50
2019-01-26T00:33:01.318Z,6.60
2019-01-26T00:35:31.228Z,6.60
2019-01-26T00:38:01.240Z,6.60
2019-01-26T00:40:31.449Z,6.60
2019-01-26T00:43:01.445Z,6.60
2019-01-26T00:45:31.375Z,6.70
2019-01-26T00:48:01.288Z,6.60
2019-01-26T00:50:31.200Z,6.60
2019-01-26T00:53:01.212Z,6.50
2019-01-26T00:55:31.125Z,6.50
2019-01-26T00:58:01.235Z,6.40
2019-01-26T01:00:31.153Z,6.40
2019-01-26T01:03:01.160Z,6.40
2019-01-26T01:05:31.077Z,6.50
2019-01-26T01:08:00.992Z,6.40
2019-01-26T01:10:31.295Z,6.40
2019-01-26T01:13:01.261Z,6.30
2019-01-26T01:15:31.219Z,6.30
2019-01-26T01:18:01.135Z,6.30
2019-01-26T01:20:31.147Z,6.20
2019-01-26T01:23:01.160Z,6.20
2019-01-26T01:25:31.366Z,6.20
2019-01-26T01:28:01.278Z,6.30
2019-01-26T01:30:31.289Z,6.20
2019-01-26T01:33:01.203Z,6.20
2019-01-26T01:35:31.413Z,6.20
2019-01-26T01:38:01.327Z,6.30
2019-01-26T01:40:31.632Z,6.30
2019-01-26T01:43:01.702Z,6.30
2019-01-26T01:45:31.662Z,6.30
2019-01-26T01:48:01.569Z,6.30
2019-01-26T01:50:32.371Z,6.30
2019-01-26T01:53:02.283Z,6.30
2019-01-26T01:55:32.393Z,6.30
2019-01-26T01:58:02.409Z,6.30
2019-01-26T02:00:33.104Z,6.30
2019-01-26T02:03:03.130Z,6.40
2019-01-26T02:05:33.326Z,6.40
2019-01-26T02:08:03.335Z,6.50
2019-01-26T02:10:33.647Z,6.50
2019-01-26T02:13:03.576Z,6.40
2019-01-26T02:15:33.567Z,6.30
2019-01-26T02:18:03.579Z,6.40
2019-01-26T02:20:33.493Z,6.50
2019-01-26T02:23:03.406Z,6.50
2019-01-26T02:25:33.616Z,6.50
2019-01-26T02:28:03.736Z,6.50
2019-01-26T02:30:33.735Z,6.60
2019-01-26T02:33:03.658Z,6.70
2019-01-26T02:35:33.575Z,6.60
2019-01-26T02:38:03.776Z,6.50
2019-01-26T02:40:34.375Z,6.50
2019-01-26T02:43:04.294Z,6.50
2019-01-26T02:45:34.205Z,6.60
2019-01-26T02:48:04.224Z,6.60
2019-01-26T02:50:34.223Z,6.60
2019-01-26T02:53:04.533Z,6.60
2019-01-26T02:55:34.641Z,6.70
2019-01-26T02:58:04.950Z,6.80
2019-01-26T03:00:34.863Z,6.80
2019-01-26T03:03:05.662Z,6.90
2019-01-26T03:05:35.969Z,7.00
2019-01-26T03:08:06.770Z,6.90
2019-01-26T03:10:36.780Z,6.90
2019-01-26T03:13:07.186Z,6.90
2019-01-26T03:15:37.588Z,6.90
2019-01-26T03:18:07.698Z,6.90
2019-01-26T03:20:37.614Z,7.00
2019-01-26T03:23:07.730Z,7.00
2019-01-26T03:25:37.634Z,7.00
2019-01-26T03:28:07.943Z,7.00
2019-01-26T03:30:37.859Z,7.00
2019-01-26T03:33:07.868Z,7.10
2019-01-26T03:35:38.078Z,7.00
2019-01-26T03:38:07.989Z,7.00
2019-01-26T03:40:37.903Z,7.00
2019-01-26T03:43:07.869Z,7.00
2019-01-26T03:45:38.025Z,7.00
2019-01-26T03:48:07.938Z,7.10
2019-01-26T03:50:37.852Z,7.10
2019-01-26T03:53:07.865Z,7.10
2019-01-26T03:55:38.072Z,7.10
2019-01-26T03:58:07.985Z,7.20
2019-01-26T04:00:37.902Z,7.20
2019-01-26T04:03:07.912Z,7.30
2019-01-26T04:05:38.154Z,7.30
2019-01-26T04:08:08.820Z,7.20
2019-01-26T04:10:38.732Z,7.20
2019-01-26T04:13:08.950Z,7.10
2019-01-26T04:15:38.854Z,7.20
2019-01-26T04:18:09.063Z,7.20
2019-01-26T04:20:39.080Z,7.10
2019-01-26T04:23:09.088Z,7.10
2019-01-26T04:25:39.000Z,7.10
2019-01-26T04:28:08.916Z,7.00
2019-01-26T04:30:38.827Z,7.00
2019-01-26T04:33:08.840Z,7.00
2019-01-26T04:35:38.753Z,7.10
2019-01-26T04:38:08.967Z,7.10
2019-01-26T04:40:38.974Z,7.10
2019-01-26T04:43:09.282Z,7.10
2019-01-26T04:45:39.591Z,7.20
2019-01-26T04:48:10.095Z,7.20
2019-01-26T04:50:40.106Z,7.20
2019-01-26T04:53:10.017Z,7.30
2019-01-26T04:55:39.810Z,7.40
2019-01-26T04:58:09.845Z,7.50
2019-01-26T05:00:39.771Z,7.50
2019-01-26T05:03:10.067Z,7.60
2019-01-26T05:05:40.177Z,7.60
2019-01-26T05:08:10.089Z,7.60
2019-01-26T05:10:40.302Z,7.60
2019-01-26T05:13:10.210Z,7.50
2019-01-26T05:15:40.226Z,7.60
2019-01-26T05:18:10.136Z,7.60
2019-01-26T05:20:40.451Z,7.60
2019-01-26T05:23:10.604Z,7.60
2019-01-26T05:25:40.861Z,7.60
2019-01-26T05:28:11.156Z,7.60
2019-01-26T05:30:41.079Z,7.60
2019-01-26T05:33:11.488Z,7.60
2019-01-26T05:35:41.402Z,7.60
2019-01-26T05:38:12.493Z,7.60
2019-01-26T05:40:42.404Z,7.50
2019-01-26T05:43:12.319Z,7.50
2019-01-26T05:45:42.376Z,7.60
2019-01-26T05:48:12.542Z,7.50
2019-01-26T05:50:42.524Z,7.50
2019-01-26T05:53:12.465Z,7.50
2019-01-26T05:55:42.381Z,7.60
2019-01-26T05:58:12.292Z,7.50
2019-01-26T06:00:42.331Z,7.60
2019-01-26T06:03:12.907Z,7.50
2019-01-26T06:05:42.818Z,7.50
2019-01-26T06:08:12.731Z,7.50
2019-01-26T06:10:42.844Z,7.50
2019-01-26T06:13:12.952Z,7.50
2019-01-26T06:15:42.892Z,7.50
2019-01-26T06:18:13.470Z,7.50
2019-01-26T06:20:43.481Z,7.50
2019-01-26T06:23:13.395Z,7.50
2019-01-26T06:25:43.603Z,7.50
2019-01-26T06:28:13.908Z,7.50
2019-01-26T06:30:44.116Z,7.50
2019-01-26T06:33:14.057Z,7.60
2019-01-26T06:35:44.046Z,7.60
2019-01-26T06:38:14.008Z,7.60
2019-01-26T06:40:43.983Z,7.60
2019-01-26T06:43:13.978Z,7.60
2019-01-26T06:45:43.902Z,7.60
2019-01-26T06:48:14.096Z,7.60
2019-01-26T06:50:44.114Z,7.60
2019-01-26T06:53:14.530Z,7.60
2019-01-26T06:55:44.634Z,7.60
2019-01-26T06:58:16.412Z,7.60
2019-01-26T07:00:46.420Z,7.60
2019-01-26T07:03:16.336Z,7.60
2019-01-26T07:05:53.673Z,7.60
2019-01-26T07:08:23.829Z,7.60
2019-01-26T07:10:53.743Z,7.60
2019-01-26T07:13:24.148Z,7.60
2019-01-26T07:15:55.634Z,7.60
2019-01-26T07:18:25.547Z,7.60
2019-01-26T07:20:55.872Z,7.60
2019-01-26T07:23:26.119Z,7.60
2019-01-26T07:25:56.076Z,7.60
2019-01-26T07:28:25.991Z,7.70
2019-01-26T07:30:56.689Z,7.70
2019-01-26T07:33:26.603Z,7.70
2019-01-26T07:35:56.518Z,7.70
2019-01-26T07:38:26.430Z,7.70
2019-01-26T07:40:56.440Z,7.80
2019-01-26T07:43:26.370Z,7.70
2019-01-26T07:45:56.562Z,7.70
2019-01-26T07:48:26.478Z,7.70
2019-01-26T07:50:56.393Z,7.80
2019-01-26T07:53:26.409Z,7.80
2019-01-26T07:55:56.907Z,7.80
2019-01-26T07:58:26.820Z,7.90
2019-01-26T08:00:56.942Z,7.90
2019-01-26T08:03:26.948Z,7.90
2019-01-26T08:05:56.854Z,7.90
2019-01-26T08:08:26.824Z,8.00
2019-01-26T08:10:56.780Z,8.00
2019-01-26T08:13:26.695Z,8.10
2019-01-26T08:15:56.607Z,8.10
2019-01-26T08:18:26.520Z,8.10
2019-01-26T08:20:56.827Z,8.00
2019-01-26T08:23:26.743Z,8.10
2019-01-26T08:25:56.653Z,8.10
2019-01-26T08:28:27.059Z,8.10
2019-01-26T08:30:56.972Z,8.10
2019-01-26T08:33:26.887Z,8.10
2019-01-26T08:35:57.292Z,8.20
2019-01-26T08:38:27.205Z,8.30
2019-01-26T08:40:57.316Z,8.30
2019-01-26T08:43:27.551Z,8.30
2019-01-26T08:45:57.827Z,8.40
2019-01-26T08:48:31.352Z,8.40
2019-01-26T08:50:59.425Z,8.50
2019-01-26T08:53:29.339Z,8.50
2019-01-26T08:55:59.582Z,8.50
2019-01-26T08:58:29.756Z,8.50
2019-01-26T09:00:59.964Z,8.50
2019-01-26T09:03:40.298Z,8.50
2019-01-26T09:08:33.739Z,8.50
2019-01-26T09:11:04.046Z,8.50
2019-01-26T09:13:34.055Z,8.60
2019-01-26T09:16:04.268Z,8.60
2019-01-26T09:18:38.775Z,8.70
2019-01-26T09:21:07.634Z,8.70
2019-01-26T09:23:37.549Z,8.80
2019-01-26T09:26:07.945Z,8.80
2019-01-26T09:28:37.860Z,8.90
2019-01-26T09:31:07.773Z,9.10
2019-01-26T09:33:37.609Z,9.10
2019-01-26T09:36:07.918Z,9.20
2019-01-26T09:38:38.011Z,9.30
2019-01-26T09:41:07.925Z,9.30
2019-01-26T09:43:37.832Z,9.40
2019-01-26T09:46:08.139Z,9.40
2019-01-26T09:48:38.351Z,9.60
2019-01-26T09:51:08.360Z,9.80
2019-01-26T09:53:38.272Z,9.80
2019-01-26T09:56:08.191Z,10.00
2019-01-26T09:58:38.100Z,10.10
2019-01-26T10:01:08.701Z,10.30
2019-01-26T10:03:38.708Z,10.30
2019-01-26T10:06:09.025Z,10.20
2019-01-26T10:08:38.942Z,10.10
2019-01-26T10:11:08.949Z,10.20
2019-01-26T10:13:38.858Z,10.40
2019-01-26T10:16:08.776Z,10.40
2019-01-26T10:18:38.981Z,10.40
2019-01-26T10:21:09.289Z,10.60
2019-01-26T10:23:39.206Z,10.80
2019-01-26T10:26:09.117Z,10.80
2019-01-26T10:28:39.128Z,10.80
2019-01-26T10:31:09.038Z,10.90
2019-01-26T10:33:38.955Z,11.00
2019-01-26T10:36:10.440Z,11.00
2019-01-26T10:38:41.820Z,11.10
2019-01-26T10:41:13.608Z,11.20
2019-01-26T10:43:48.164Z,11.40
2019-01-26T10:46:18.158Z,11.60
2019-01-26T10:48:48.067Z,11.90
2019-01-26T10:51:19.598Z,12.10
2019-01-26T10:53:49.566Z,12.30
2019-01-26T10:56:20.759Z,12.20
2019-01-26T10:58:51.266Z,11.80
2019-01-26T11:01:21.175Z,11.70
2019-01-26T11:03:51.089Z,11.50
2019-01-26T11:06:21.001Z,11.60
2019-01-26T11:08:50.916Z,12.00
2019-01-26T11:11:20.931Z,11.80
2019-01-26T11:13:51.156Z,11.60
2019-01-26T11:16:21.345Z,11.40
2019-01-26T11:18:51.619Z,11.20
2019-01-26T11:21:21.918Z,11.20
2019-01-26T11:23:51.976Z,11.20
2019-01-26T11:26:22.079Z,11.20
2019-01-26T11:28:52.090Z,11.20
2019-01-26T11:31:22.597Z,11.40
2019-01-26T11:33:52.510Z,12.20
2019-01-26T11:36:22.536Z,12.60
2019-01-26T11:38:52.636Z,12.60
2019-01-26T11:41:22.648Z,12.50
2019-01-26T11:43:52.751Z,12.60
2019-01-26T11:46:24.343Z,12.50
2019-01-26T11:48:54.250Z,12.20
2019-01-26T11:51:25.931Z,12.30
2019-01-26T11:53:56.243Z,12.50
2019-01-26T11:56:27.729Z,12.00
2019-01-26T11:58:57.736Z,11.90
2019-01-26T12:01:32.073Z,11.60
2019-01-26T12:04:03.761Z,11.60
2019-01-26T12:06:35.125Z,11.50
2019-01-26T12:09:08.113Z,11.60
2019-01-26T12:11:38.512Z,11.60
2019-01-26T12:14:08.422Z,11.40
2019-01-26T12:16:38.433Z,11.30
2019-01-26T12:19:08.545Z,11.40
2019-01-26T12:21:38.557Z,11.30
2019-01-26T12:24:08.472Z,11.20
2019-01-26T12:26:38.389Z,11.20
2019-01-26T12:29:08.395Z,11.50
2019-01-26T12:31:39.275Z,12.20
2019-01-26T12:34:09.206Z,12.20
2019-01-26T12:36:39.122Z,12.00
2019-01-26T12:39:10.411Z,11.80
2019-01-26T12:41:40.622Z,11.70
2019-01-26T12:44:10.532Z,11.60
2019-01-26T12:46:40.738Z,11.60
2019-01-26T12:49:10.652Z,11.60
2019-01-26T12:51:40.668Z,11.60
2019-01-26T12:54:10.578Z,11.50
2019-01-26T12:56:40.690Z,11.50
2019-01-26T12:59:10.591Z,12.10
2019-01-26T13:01:41.729Z,12.80
2019-01-26T13:04:11.833Z,13.10
2019-01-26T13:06:41.920Z,12.80
2019-01-26T13:09:12.124Z,12.40
2019-01-26T13:11:42.040Z,12.50
2019-01-26T13:14:11.948Z,12.80
2019-01-26T13:16:42.159Z,12.60
2019-01-26T13:19:12.367Z,12.20
2019-01-26T13:21:42.575Z,12.40
2019-01-26T13:24:12.504Z,12.60
2019-01-26T13:26:42.401Z,12.20
2019-01-26T13:29:12.314Z,12.40
2019-01-26T13:31:42.229Z,13.00
2019-01-26T13:34:12.240Z,13.00
2019-01-26T13:36:42.153Z,12.90
2019-01-26T13:39:12.067Z,12.70
2019-01-26T13:41:42.275Z,12.90
2019-01-26T13:44:12.731Z,13.10
2019-01-26T13:46:42.752Z,13.60
2019-01-26T13:49:13.293Z,13.00
2019-01-26T13:51:43.305Z,12.50
2019-01-26T13:54:13.419Z,12.60
2019-01-26T13:56:43.328Z,13.20
2019-01-26T13:59:13.538Z,13.10
2019-01-26T14:01:43.549Z,12.90
2019-01-26T14:04:14.070Z,12.60
2019-01-26T14:06:43.985Z,12.50
2019-01-26T14:09:14.077Z,12.40
2019-01-26T14:11:44.094Z,12.20
2019-01-26T14:14:14.100Z,12.20
2019-01-26T14:16:44.017Z,12.30
2019-01-26T14:19:14.137Z,12.40
2019-01-26T14:21:44.134Z,12.20
2019-01-26T14:24:14.401Z,12.10
2019-01-26T14:26:49.662Z,12.20
2019-01-26T14:29:16.921Z,12.10
2019-01-26T14:31:46.835Z,12.20
2019-01-26T14:34:16.847Z,12.20
2019-01-26T14:36:47.054Z,12.10
2019-01-26T14:39:16.972Z,12.10
2019-01-26T14:41:46.881Z,12.10
2019-01-26T14:44:18.409Z,12.10
2019-01-26T14:46:48.379Z,11.90
2019-01-26T14:49:18.501Z,11.80
2019-01-26T14:51:48.405Z,11.80
2019-01-26T14:54:18.320Z,11.80
2019-01-26T14:56:48.231Z,12.00
2019-01-26T14:59:18.341Z,12.20
2019-01-26T15:01:48.450Z,12.00
2019-01-26T15:04:18.463Z,11.90
2019-01-26T15:06:48.377Z,11.80
2019-01-26T15:09:18.291Z,11.80
2019-01-26T15:11:48.597Z,11.70
2019-01-26T15:14:18.874Z,11.90
2019-01-26T15:16:48.814Z,11.80
2019-01-26T15:19:18.734Z,11.70
2019-01-26T15:21:48.980Z,11.70
2019-01-26T15:24:19.280Z,11.80
2019-01-26T15:26:49.354Z,11.80
2019-01-26T15:29:19.269Z,11.60
2019-01-26T15:31:49.182Z,11.70
2019-01-26T15:34:19.100Z,11.70
2019-01-26T15:36:49.107Z,11.70
2019-01-26T15:39:19.018Z,11.70
2019-01-26T15:41:49.423Z,11.70
2019-01-26T15:44:19.338Z,11.70
2019-01-26T15:46:49.252Z,11.70
2019-01-26T15:49:19.171Z,11.60
2019-01-26T15:51:49.181Z,11.70
2019-01-26T15:54:19.090Z,11.60
2019-01-26T15:56:49.004Z,11.60
2019-01-26T15:59:18.917Z,11.40
2019-01-26T16:01:50.242Z,11.50
2019-01-26T16:04:20.223Z,11.50
2019-01-26T16:06:50.430Z,11.40
2019-01-26T16:09:20.341Z,11.40
2019-01-26T16:11:50.259Z,11.40
2019-01-26T16:14:20.138Z,11.40
2019-01-26T16:16:50.084Z,11.50
2019-01-26T16:19:20.290Z,11.50
2019-01-26T16:21:50.499Z,11.50
2019-01-26T16:24:20.409Z,11.40
2019-01-26T16:26:50.519Z,11.40
2019-01-26T16:29:20.532Z,11.40
2019-01-26T16:31:50.445Z,11.30
2019-01-26T16:34:20.358Z,11.20
2019-01-26T16:36:50.571Z,11.10
2019-01-26T16:39:20.507Z,11.20
2019-01-26T16:41:50.787Z,11.20
2019-01-26T16:44:20.800Z,11.10
2019-01-26T16:46:51.011Z,11.20
2019-01-26T16:49:20.921Z,11.10
2019-01-26T16:51:50.835Z,11.20
2019-01-26T16:54:20.750Z,11.20
2019-01-26T16:56:50.662Z,11.10
2019-01-26T16:59:20.577Z,11.00
2019-01-26T17:01:50.711Z,10.90
2019-01-26T17:04:21.384Z,10.90
2019-01-26T17:06:51.297Z,10.90
2019-01-26T17:09:21.210Z,10.90
2019-01-26T17:11:51.123Z,11.00
2019-01-26T17:14:21.139Z,10.90
2019-01-26T17:16:51.147Z,10.80
2019-01-26T17:19:21.061Z,10.80
2019-01-26T17:21:50.980Z,10.80
2019-01-26T17:24:20.887Z,10.80
2019-01-26T17:26:52.854Z,10.80
2019-01-26T17:29:22.484Z,10.90
2019-01-26T17:31:52.397Z,11.00
2019-01-26T17:34:23.243Z,11.00
2019-01-26T17:36:53.211Z,11.00
2019-01-26T17:39:23.417Z,10.90
2019-01-26T17:41:53.331Z,11.00
2019-01-26T17:44:23.395Z,10.90
2019-01-26T17:46:53.355Z,10.90
2019-01-26T17:49:23.505Z,10.80
2019-01-26T17:51:53.476Z,10.80
2019-01-26T17:54:23.389Z,10.80
2019-01-26T17:56:53.300Z,11.00
2019-01-26T17:59:23.218Z,11.00
2019-01-26T18:01:53.140Z,11.00
2019-01-26T18:04:23.061Z,11.00
2019-01-26T18:06:53.251Z,11.00
2019-01-26T18:09:23.459Z,10.90
2019-01-26T18:11:53.898Z,10.90
2019-01-26T18:14:23.975Z,10.80
2019-01-26T18:16:53.992Z,10.80
2019-01-26T18:19:24.209Z,10.80
2019-01-26T18:21:54.208Z,10.60
2019-01-26T18:24:24.121Z,10.60
2019-01-26T18:26:54.525Z,10.80
2019-01-26T18:29:24.438Z,10.70
2019-01-26T18:31:54.354Z,10.70
2019-01-26T18:34:24.264Z,10.50
2019-01-26T18:36:54.276Z,10.60
2019-01-26T18:39:24.485Z,10.60
2019-01-26T18:41:54.496Z,10.60
2019-01-26T18:44:24.609Z,10.60
2019-01-26T18:46:54.521Z,10.80
2019-01-26T18:49:24.434Z,10.70
2019-01-26T18:51:54.346Z,10.70
2019-01-26T18:54:24.369Z,10.70
2019-01-26T18:56:54.273Z,10.70
2019-01-26T18:59:24.382Z,10.50
2019-01-26T19:01:54.394Z,10.70
2019-01-26T19:04:24.504Z,10.70
2019-01-26T19:06:54.712Z,10.60
2019-01-26T19:09:24.831Z,10.60
2019-01-26T19:11:54.736Z,10.60
2019-01-26T19:14:24.747Z,10.50
2019-01-26T19:16:54.665Z,10.40
2019-01-26T19:19:24.673Z,10.50
2019-01-26T19:21:54.787Z,10.60
2019-01-26T19:24:24.699Z,10.70
2019-01-26T19:26:54.611Z,10.70
2019-01-26T19:29:24.918Z,10.60
2019-01-26T19:31:55.522Z,10.50
2019-01-26T19:34:25.930Z,10.60
2019-01-26T19:36:56.041Z,10.50
2019-01-26T19:39:26.537Z,10.50
2019-01-26T19:41:57.199Z,10.40
2019-01-26T19:44:27.251Z,10.30
2019-01-26T19:46:57.259Z,10.30
2019-01-26T19:49:27.172Z,10.30
2019-01-26T19:51:57.389Z,10.30
2019-01-26T19:54:27.325Z,10.30
2019-01-26T19:56:57.409Z,10.40
2019-01-26T19:59:27.316Z,10.20
2019-01-26T20:01:57.729Z,10.20
2019-01-26T20:04:28.402Z,10.20
2019-01-26T20:06:58.728Z,10.30
2019-01-26T20:09:28.839Z,10.30
2019-01-26T20:11:58.754Z,10.30
2019-01-26T20:14:28.959Z,10.20
2019-01-26T20:16:59.081Z,10.20
2019-01-26T20:19:28.984Z,10.20
2019-01-26T20:21:58.897Z,10.30
2019-01-26T20:24:28.810Z,10.20
2019-01-26T20:26:58.724Z,10.10
2019-01-26T20:29:28.637Z,10.20
2019-01-26T20:31:58.553Z,10.20
2019-01-26T20:34:28.955Z,10.20
2019-01-26T20:36:58.978Z,10.20
2019-01-26T20:39:29.381Z,10.10
2019-01-26T20:41:59.433Z,10.10
2019-01-26T20:44:29.397Z,10.10
2019-01-26T20:46:59.413Z,10.10
2019-01-26T20:49:29.817Z,10.10
2019-01-26T20:52:00.419Z,10.00
2019-01-26T20:54:30.727Z,10.00
2019-01-26T20:57:01.033Z,10.00
2019-01-26T20:59:31.335Z,10.00
2019-01-26T21:02:01.249Z,9.90
2019-01-26T21:04:31.265Z,10.00
2019-01-26T21:07:01.868Z,9.90
2019-01-26T21:09:32.460Z,9.80
2019-01-26T21:12:02.376Z,9.80
2019-01-26T21:14:32.690Z,9.70
2019-01-26T21:17:02.705Z,9.60
2019-01-26T21:19:32.717Z,9.50
2019-01-26T21:22:02.733Z,9.40
2019-01-26T21:24:32.633Z,9.30
2019-01-26T21:27:02.936Z,9.30
2019-01-26T21:29:32.947Z,9.30
2019-01-26T21:32:03.264Z,9.40
2019-01-26T21:34:33.053Z,9.40
2019-01-26T21:37:02.983Z,9.30
2019-01-26T21:39:32.895Z,9.30
2019-01-26T21:42:02.811Z,9.40
2019-01-26T21:44:32.723Z,9.40
2019-01-26T21:47:03.032Z,9.30
2019-01-26T21:49:32.942Z,9.30
2019-01-26T21:52:02.866Z,9.30
2019-01-26T21:54:32.768Z,9.30
2019-01-26T21:57:02.704Z,9.20
2019-01-26T21:59:32.699Z,9.30
2019-01-26T22:02:02.615Z,9.40
2019-01-26T22:04:32.522Z,9.40
2019-01-26T22:07:06.363Z,9.40
2019-01-26T22:09:36.285Z,9.30
2019-01-26T22:12:06.688Z,9.30
2019-01-26T22:14:36.696Z,9.30
2019-01-26T22:17:06.709Z,9.30
2019-01-26T22:19:36.719Z,9.30
2019-01-26T22:22:06.732Z,9.20
2019-01-26T22:24:36.746Z,9.10
2019-01-26T22:27:06.954Z,9.00
2019-01-26T22:29:36.963Z,9.10
2019-01-26T22:32:07.572Z,9.20
2019-01-26T22:34:37.479Z,9.00
2019-01-26T22:37:07.395Z,9.10
2019-01-26T22:39:37.307Z,9.10
2019-01-26T22:42:08.008Z,9.00
2019-01-26T22:44:37.919Z,8.90
2019-01-26T22:47:07.833Z,9.00
2019-01-26T22:49:37.945Z,9.00
2019-01-26T22:52:08.150Z,9.00
2019-01-26T22:54:38.357Z,9.00
2019-01-26T22:57:08.272Z,9.10
2019-01-26T22:59:38.301Z,9.00
2019-01-26T23:02:10.515Z,9.10
2019-01-26T23:04:53.745Z,9.10
2019-01-26T23:07:28.276Z,9.10
2019-01-26T23:10:05.560Z,9.20
2019-01-26T23:12:45.606Z,9.00
2019-01-26T23:15:31.952Z,9.00
2019-01-26T23:18:27.402Z,9.10
2019-01-26T23:21:07.343Z,9.00
2019-01-26T23:24:08.123Z,9.10
2019-01-26T23:27:08.215Z,9.20
2019-01-26T23:30:17.448Z,9.20
2019-01-26T23:32:47.561Z,9.30
2019-01-26T23:35:17.951Z,9.30
2019-01-26T23:37:47.876Z,9.30
2019-01-26T23:40:18.368Z,9.30
2019-01-26T23:42:48.489Z,9.30
2019-01-26T23:45:18.404Z,9.30
2019-01-26T23:47:48.315Z,9.40
2019-01-26T23:50:18.237Z,9.40
2019-01-26T23:52:48.739Z,9.40
2019-01-26T23:55:19.039Z,9.30
2019-01-26T23:57:49.555Z,9.40
